createdAt,value
2022-12-23T00:00:31.657Z,-1.79
2022-12-23T00:03:19.310Z,-1.85
2022-12-23T00:05:46.383Z,-1.89
2022-12-23T00:08:13.776Z,-1.87
2022-12-23T00:10:41.499Z,-1.86
2022-12-23T00:13:29.460Z,-1.83
2022-12-23T00:16:07.395Z,-1.79
2022-12-23T00:18:35.351Z,-1.84
2022-12-23T00:21:08.918Z,-1.85
2022-12-23T00:23:38.910Z,-1.91
2022-12-23T00:26:06.990Z,-1.85
2022-12-23T00:28:34.370Z,-1.88
2022-12-23T00:31:04.619Z,-1.86
2022-12-23T00:33:37.002Z,-1.85
2022-12-23T00:36:16.995Z,-1.82
2022-12-23T00:39:03.429Z,-1.83
2022-12-23T00:41:49.678Z,-1.87
2022-12-23T00:44:17.085Z,-1.87
2022-12-23T00:46:44.278Z,-1.83
2022-12-23T00:49:32.493Z,-1.83
2022-12-23T00:52:00.615Z,-1.81
2022-12-23T00:54:29.047Z,-1.83
2022-12-23T00:56:57.278Z,-1.81
2022-12-23T00:59:24.869Z,-1.86
2022-12-23T01:02:10.488Z,-1.86
2022-12-23T01:04:56.425Z,-1.89
2022-12-23T01:07:24.257Z,-1.89
2022-12-23T01:09:51.592Z,-1.89
2022-12-23T01:12:18.995Z,-1.86
2022-12-23T01:14:46.630Z,-1.86
2022-12-23T01:17:13.844Z,-1.87
2022-12-23T01:19:41.229Z,-1.85
2022-12-23T01:22:08.522Z,-1.85
2022-12-23T01:24:35.792Z,-1.83
2022-12-23T01:27:02.846Z,-1.88
2022-12-23T01:29:30.403Z,-1.80
2022-12-23T01:31:57.651Z,-1.79
2022-12-23T01:34:28.485Z,-1.83
2022-12-23T01:36:58.157Z,-1.83
2022-12-23T01:39:25.584Z,-1.89
2022-12-23T01:42:11.228Z,-1.86
2022-12-23T01:45:00.886Z,-1.84
2022-12-23T01:47:34.130Z,-1.83
2022-12-23T01:50:09.735Z,-1.83
2022-12-23T01:53:06.935Z,-1.81
2022-12-23T01:55:59.841Z,-1.83
2022-12-23T01:58:32.339Z,-1.80
2022-12-23T02:01:18.677Z,-1.83
2022-12-23T02:03:48.146Z,-1.81
2022-12-23T02:06:37.181Z,-1.82
2022-12-23T02:09:17.798Z,-1.84
2022-12-23T02:11:54.223Z,-1.81
2022-12-23T02:15:14.211Z,-1.81
2022-12-23T02:17:48.089Z,-1.77
2022-12-23T02:21:06.182Z,-1.76
2022-12-23T02:24:01.939Z,-1.71
2022-12-23T02:26:53.916Z,-1.72
2022-12-23T02:29:21.279Z,-1.72
2022-12-23T02:31:58.481Z,-1.73
2022-12-23T02:35:05.139Z,-1.73
2022-12-23T02:37:44.349Z,-1.75
2022-12-23T02:41:01.299Z,-1.82
2022-12-23T02:44:00.586Z,-1.82
2022-12-23T02:46:31.059Z,-1.84
2022-12-23T02:49:15.372Z,-1.85
2022-12-23T02:51:48.079Z,-1.93
2022-12-23T02:54:21.138Z,-1.88
2022-12-23T02:56:51.911Z,-1.85
2022-12-23T02:59:23.862Z,-1.87
2022-12-23T03:01:53.382Z,-1.79
2022-12-23T03:04:21.613Z,-1.79
2022-12-23T03:06:53.495Z,-1.77
2022-12-23T03:09:33.950Z,-1.74
2022-12-23T03:12:20.959Z,-1.74
2022-12-23T03:15:20.523Z,-1.77
2022-12-23T03:17:58.006Z,-1.75
2022-12-23T03:20:32.486Z,-1.78
2022-12-23T03:23:06.177Z,-1.80
2022-12-23T03:25:40.709Z,-1.75
2022-12-23T03:28:24.069Z,-1.79
2022-12-23T03:31:00.292Z,-1.84
2022-12-23T03:33:44.865Z,-1.73
2022-12-23T03:36:37.036Z,-1.72
2022-12-23T03:39:10.285Z,-1.75
2022-12-23T03:41:43.831Z,-1.71
2022-12-23T03:44:18.663Z,-1.70
2022-12-23T03:47:14.894Z,-1.70
2022-12-23T03:49:48.263Z,-1.70
2022-12-23T03:52:21.643Z,-1.68
2022-12-23T03:54:56.077Z,-1.71
2022-12-23T03:57:28.897Z,-1.73
2022-12-23T03:59:56.481Z,-1.69
2022-12-23T04:02:54.107Z,-1.69
2022-12-23T04:05:33.389Z,-1.74
2022-12-23T04:08:09.360Z,-1.73
2022-12-23T04:10:37.271Z,-1.74
2022-12-23T04:13:04.384Z,-1.75
2022-12-23T04:15:32.006Z,-1.74
2022-12-23T04:17:59.172Z,-1.76
2022-12-23T04:20:26.635Z,-1.72
2022-12-23T04:22:53.612Z,-1.71
2022-12-23T04:25:23.240Z,-1.73
2022-12-23T04:27:52.193Z,-1.72
2022-12-23T04:30:19.601Z,-1.76
2022-12-23T04:32:46.655Z,-1.77
2022-12-23T04:35:14.266Z,-1.76
2022-12-23T04:37:41.273Z,-1.78
2022-12-23T04:40:10.210Z,-1.76
2022-12-23T04:42:37.338Z,-1.75
2022-12-23T04:45:05.433Z,-1.75
2022-12-23T04:47:32.430Z,-1.78
2022-12-23T04:49:59.931Z,-1.75
2022-12-23T04:52:27.393Z,-1.76
2022-12-23T04:54:55.193Z,-1.72
2022-12-23T04:57:22.361Z,-1.68
2022-12-23T04:59:50.115Z,-1.68
2022-12-23T05:02:18.541Z,-1.69
2022-12-23T05:04:47.549Z,-1.68
2022-12-23T05:07:14.933Z,-1.73
2022-12-23T05:09:42.335Z,-1.70
2022-12-23T05:12:09.404Z,-1.73
2022-12-23T05:14:37.416Z,-1.75
2022-12-23T05:17:07.984Z,-1.80
2022-12-23T05:19:35.755Z,-1.82
2022-12-23T05:22:02.760Z,-1.82
2022-12-23T05:24:30.174Z,-1.82
2022-12-23T05:27:00.155Z,-1.82
2022-12-23T05:29:35.854Z,-1.80
2022-12-23T05:32:03.026Z,-1.74
2022-12-23T05:34:30.785Z,-1.76
2022-12-23T05:36:58.136Z,-1.75
2022-12-23T05:39:25.651Z,-1.76
2022-12-23T05:41:52.853Z,-1.72
2022-12-23T05:44:20.915Z,-1.73
2022-12-23T05:46:47.992Z,-1.67
2022-12-23T05:49:15.406Z,-1.68
2022-12-23T05:51:43.397Z,-1.58
2022-12-23T05:54:10.917Z,-1.58
2022-12-23T05:56:37.982Z,-1.54
2022-12-23T05:59:05.418Z,-1.49
2022-12-23T06:01:34.603Z,-1.47
2022-12-23T06:04:02.417Z,-1.42
2022-12-23T06:06:29.653Z,-1.41
2022-12-23T06:08:59.770Z,-1.42
2022-12-23T06:11:28.803Z,-1.48
2022-12-23T06:13:57.397Z,-1.49
2022-12-23T06:16:25.107Z,-1.49
2022-12-23T06:18:56.611Z,-1.51
2022-12-23T06:21:25.599Z,-1.39
2022-12-23T06:23:53.325Z,-1.31
2022-12-23T06:26:20.915Z,-1.33
2022-12-23T06:28:50.085Z,-1.22
2022-12-23T06:31:21.359Z,-1.17
2022-12-23T06:34:08.652Z,-1.22
2022-12-23T06:36:38.121Z,-1.08
2022-12-23T06:39:20.931Z,-1.04
2022-12-23T06:41:50.745Z,-0.98
2022-12-23T06:44:19.980Z,-0.89
2022-12-23T06:46:49.107Z,-0.84
2022-12-23T06:49:16.736Z,-0.72
2022-12-23T06:51:46.540Z,-0.63
2022-12-23T06:54:15.648Z,-0.55
2022-12-23T06:56:45.222Z,-0.50
2022-12-23T06:59:13.496Z,-0.48
2022-12-23T07:01:40.860Z,-0.45
2022-12-23T07:04:11.509Z,-0.43
2022-12-23T07:06:43.368Z,-0.41
2022-12-23T07:09:15.404Z,-0.37
2022-12-23T07:11:42.342Z,-0.29
2022-12-23T07:14:10.367Z,-0.22
2022-12-23T07:16:37.692Z,-0.20
2022-12-23T07:19:05.265Z,-0.13
2022-12-23T07:21:40.314Z,-0.17
2022-12-23T07:24:22.839Z,-0.13
2022-12-23T07:26:54.518Z,-0.16
2022-12-23T07:29:21.953Z,-0.17
2022-12-23T07:31:49.490Z,-0.08
2022-12-23T07:34:16.947Z,-0.07
2022-12-23T07:36:43.925Z,-0.10
2022-12-23T07:39:11.274Z,0.04
2022-12-23T07:41:38.497Z,0.08
2022-12-23T07:44:06.301Z,0.14
2022-12-23T07:46:36.790Z,0.24
2022-12-23T07:51:49.835Z,0.39
2022-12-23T07:54:43.025Z,0.51
2022-12-23T07:57:13.516Z,0.67
2022-12-23T07:59:44.535Z,0.70
2022-12-23T08:05:12.570Z,0.77
2022-12-23T08:07:59.239Z,0.94
2022-12-23T08:10:40.254Z,1.03
2022-12-23T08:13:10.015Z,1.08
2022-12-23T08:15:40.502Z,1.03
2022-12-23T08:18:13.399Z,1.09
2022-12-23T08:20:40.960Z,1.17
2022-12-23T08:23:13.249Z,1.36
2022-12-23T08:25:41.126Z,1.50
2022-12-23T08:28:17.211Z,1.54
2022-12-23T08:30:53.789Z,1.70
2022-12-23T08:33:28.508Z,1.82
2022-12-23T08:36:04.995Z,1.82
2022-12-23T08:41:21.828Z,2.01
2022-12-23T08:43:49.776Z,2.08
2022-12-23T08:46:18.879Z,2.22
2022-12-23T08:48:49.363Z,2.31
2022-12-23T08:51:22.391Z,2.42
2022-12-23T08:54:20.422Z,2.61
2022-12-23T08:56:48.011Z,2.72
2022-12-23T08:59:19.851Z,2.78
2022-12-23T09:01:51.887Z,2.87
2022-12-23T09:09:49.526Z,3.10
2022-12-23T09:12:17.161Z,3.02
2022-12-23T09:14:47.766Z,3.04
2022-12-23T09:17:17.842Z,3.06
2022-12-23T09:19:48.742Z,3.12
2022-12-23T09:22:22.633Z,3.26
2022-12-23T09:24:49.604Z,3.28
2022-12-23T09:27:17.227Z,3.42
2022-12-23T09:29:44.288Z,4.05
2022-12-23T09:32:11.621Z,4.94
2022-12-23T09:34:42.119Z,5.98
2022-12-23T09:37:09.534Z,7.28
2022-12-23T09:39:36.687Z,8.76
2022-12-23T09:42:19.635Z,9.79
2022-12-23T09:45:03.157Z,10.76
2022-12-23T09:47:35.491Z,12.09
2022-12-23T09:50:23.694Z,12.79
2022-12-23T09:53:08.800Z,13.16
2022-12-23T09:55:42.978Z,13.69
2022-12-23T09:58:26.965Z,14.06
2022-12-23T10:01:10.931Z,13.86
2022-12-23T10:04:05.162Z,12.98
2022-12-23T10:06:34.495Z,12.39
2022-12-23T10:09:11.831Z,11.60
2022-12-23T10:11:43.952Z,11.29
2022-12-23T10:14:32.200Z,10.88
2022-12-23T10:17:05.475Z,10.51
2022-12-23T10:19:44.286Z,10.06
2022-12-23T10:22:25.348Z,9.64
2022-12-23T10:24:55.618Z,9.34
2022-12-23T10:27:37.178Z,9.12
2022-12-23T10:30:34.224Z,8.73
2022-12-23T10:33:09.663Z,8.68
2022-12-23T10:35:42.861Z,8.29
2022-12-23T10:38:27.900Z,7.80
2022-12-23T10:41:06.958Z,7.27
2022-12-23T10:44:15.084Z,7.14
2022-12-23T10:46:52.092Z,7.08
2022-12-23T10:49:48.976Z,7.05
2022-12-23T10:52:21.660Z,6.95
2022-12-23T10:54:49.536Z,6.99
2022-12-23T10:57:19.250Z,6.86
2022-12-23T10:59:46.268Z,6.82
2022-12-23T11:02:13.754Z,6.71
2022-12-23T11:04:47.264Z,6.49
2022-12-23T11:07:44.139Z,6.40
2022-12-23T11:10:20.941Z,6.40
2022-12-23T11:13:03.464Z,6.49
2022-12-23T11:15:34.578Z,6.49
2022-12-23T11:18:21.945Z,6.43
2022-12-23T11:21:05.789Z,6.43
2022-12-23T11:23:38.497Z,6.48
2022-12-23T11:26:07.803Z,6.50
2022-12-23T11:28:38.470Z,6.45
2022-12-23T11:31:09.959Z,6.46
2022-12-23T11:33:49.114Z,6.36
2022-12-23T11:36:24.280Z,6.34
2022-12-23T11:38:58.920Z,6.36
2022-12-23T11:41:35.283Z,6.38
2022-12-23T11:44:09.874Z,6.36
2022-12-23T11:46:37.431Z,6.34
2022-12-23T11:49:24.134Z,6.28
2022-12-23T11:52:13.247Z,6.30
2022-12-23T11:54:40.552Z,6.22
2022-12-23T11:57:19.154Z,6.25
2022-12-23T11:59:49.937Z,6.17
2022-12-23T12:02:47.868Z,6.22
2022-12-23T12:05:23.032Z,6.33
2022-12-23T12:07:52.653Z,6.35
2022-12-23T12:10:26.465Z,6.46
2022-12-23T12:12:58.229Z,6.46
2022-12-23T12:15:31.329Z,6.47
2022-12-23T12:18:02.360Z,6.50
2022-12-23T12:20:41.701Z,6.51
2022-12-23T12:23:32.878Z,6.42
2022-12-23T12:26:06.224Z,6.35
2022-12-23T12:28:39.053Z,6.33
2022-12-23T12:31:30.330Z,6.20
2022-12-23T12:34:05.908Z,6.10
2022-12-23T12:36:41.624Z,5.97
2022-12-23T12:39:20.140Z,5.89
2022-12-23T12:42:01.776Z,5.79
2022-12-23T12:45:00.884Z,5.77
2022-12-23T12:48:02.104Z,5.76
2022-12-23T12:50:41.330Z,5.72
2022-12-23T12:53:18.750Z,5.66
2022-12-23T12:55:57.437Z,5.60
2022-12-23T12:58:25.176Z,5.56
2022-12-23T13:00:59.788Z,5.54
2022-12-23T13:03:45.408Z,5.47
2022-12-23T13:06:44.566Z,5.40
2022-12-23T13:09:47.160Z,5.39
2022-12-23T13:12:22.398Z,5.39
2022-12-23T13:15:07.637Z,5.37
2022-12-23T13:17:50.992Z,5.31
2022-12-23T13:20:46.744Z,5.27
2022-12-23T13:23:43.404Z,5.24
2022-12-23T13:26:24.045Z,5.23
2022-12-23T13:29:21.472Z,5.26
2022-12-23T13:32:12.682Z,5.25
2022-12-23T13:35:18.888Z,5.24
2022-12-23T13:37:52.182Z,5.15
2022-12-23T13:40:29.045Z,5.09
2022-12-23T13:43:14.887Z,5.01
2022-12-23T13:45:46.438Z,4.95
2022-12-23T13:48:36.862Z,4.92
2022-12-23T13:51:14.336Z,4.91
2022-12-23T13:53:50.712Z,4.85
2022-12-23T13:56:43.666Z,4.81
2022-12-23T13:59:13.141Z,4.77
2022-12-23T14:01:40.432Z,4.74
2022-12-23T14:04:34.822Z,4.67
2022-12-23T14:07:05.642Z,4.64
2022-12-23T14:09:41.224Z,4.60
2022-12-23T14:12:17.539Z,4.53
2022-12-23T14:15:03.782Z,4.47
2022-12-23T14:17:52.202Z,4.36
2022-12-23T14:20:27.982Z,4.30
2022-12-23T14:22:57.850Z,4.23
2022-12-23T14:25:51.737Z,4.16
2022-12-23T14:28:31.822Z,4.10
2022-12-23T14:31:03.165Z,4.07
2022-12-23T14:33:36.309Z,4.00
2022-12-23T14:36:25.368Z,3.96
2022-12-23T14:39:12.929Z,3.91
2022-12-23T14:41:58.705Z,3.78
2022-12-23T14:44:39.029Z,3.74
2022-12-23T14:47:34.062Z,3.67
2022-12-23T14:50:40.493Z,3.60
2022-12-23T14:53:21.978Z,3.50
2022-12-23T14:56:11.817Z,3.43
2022-12-23T14:58:51.283Z,3.38
2022-12-23T15:01:37.561Z,3.32
2022-12-23T15:04:13.377Z,3.26
2022-12-23T15:06:44.629Z,3.31
2022-12-23T15:09:33.380Z,3.30
2022-12-23T15:12:15.146Z,3.24
2022-12-23T15:14:55.071Z,3.24
2022-12-23T15:17:35.484Z,3.17
2022-12-23T15:20:15.857Z,3.19
2022-12-23T15:22:44.853Z,3.20
2022-12-23T15:25:35.371Z,3.14
2022-12-23T15:28:03.760Z,3.09
2022-12-23T15:30:35.603Z,3.02
2022-12-23T15:33:34.780Z,2.96
2022-12-23T15:35:57.330Z,2.86
2022-12-23T15:38:29.470Z,2.73
2022-12-23T15:41:00.277Z,2.70
2022-12-23T15:43:27.383Z,2.76
2022-12-23T15:45:55.034Z,2.75
2022-12-23T15:48:30.632Z,2.72
2022-12-23T15:51:04.083Z,2.72
2022-12-23T15:56:28.249Z,2.64
2022-12-23T15:58:58.947Z,2.64
2022-12-23T16:01:26.819Z,2.60
2022-12-23T16:06:52.883Z,2.58
2022-12-23T16:09:19.900Z,2.56
2022-12-23T16:11:58.408Z,2.41
2022-12-23T16:14:28.196Z,2.37
2022-12-23T16:17:00.093Z,2.25
2022-12-23T16:20:08.077Z,2.12
2022-12-23T16:22:40.507Z,2.17
2022-12-23T16:25:25.730Z,2.16
2022-12-23T16:28:12.717Z,2.15
2022-12-23T16:34:07.846Z,2.19
2022-12-23T16:36:38.078Z,2.21
2022-12-23T16:39:19.080Z,2.16
2022-12-23T16:41:46.581Z,2.09
2022-12-23T16:47:17.188Z,1.89
2022-12-23T16:49:45.170Z,1.90
2022-12-23T16:52:14.735Z,1.79
2022-12-23T16:54:51.049Z,1.76
2022-12-23T16:57:18.163Z,1.82
2022-12-23T16:59:47.115Z,1.81
2022-12-23T17:02:24.410Z,1.60
2022-12-23T17:04:54.477Z,1.57
2022-12-23T17:07:23.617Z,1.56
2022-12-23T17:09:52.070Z,1.51
2022-12-23T17:12:19.383Z,1.49
2022-12-23T17:14:55.833Z,1.35
2022-12-23T17:17:27.014Z,1.29
2022-12-23T17:19:56.410Z,1.21
2022-12-23T17:22:25.994Z,1.11
2022-12-23T17:25:08.489Z,0.98
2022-12-23T17:27:46.390Z,0.96
2022-12-23T17:30:21.001Z,0.85
2022-12-23T17:32:55.758Z,0.84
2022-12-23T17:35:23.604Z,0.73
2022-12-23T17:37:52.999Z,0.77
2022-12-23T17:40:21.597Z,0.73
2022-12-23T17:42:51.993Z,0.67
2022-12-23T17:45:25.997Z,0.70
2022-12-23T17:47:55.959Z,0.59
2022-12-23T17:50:28.352Z,0.51
2022-12-23T17:52:58.126Z,0.54
2022-12-23T17:55:36.572Z,0.48
2022-12-23T17:58:06.846Z,0.45
2022-12-23T18:00:34.697Z,0.39
2022-12-23T18:03:03.808Z,0.30
2022-12-23T18:05:34.198Z,0.30
2022-12-23T18:08:02.989Z,0.31
2022-12-23T18:10:36.758Z,0.25
2022-12-23T18:13:10.065Z,0.19
2022-12-23T18:15:39.841Z,0.17
2022-12-23T18:18:28.582Z,0.10
2022-12-23T18:21:00.623Z,0.02
2022-12-23T18:23:30.965Z,0.04
2022-12-23T18:25:59.968Z,0.05
2022-12-23T18:28:33.486Z,0.00
2022-12-23T18:31:02.471Z,0.04
2022-12-23T18:36:27.303Z,0.02
2022-12-23T18:38:55.164Z,0.02
2022-12-23T18:41:23.108Z,-0.02
2022-12-23T18:43:51.736Z,0.01
2022-12-23T18:46:20.332Z,-0.05
2022-12-23T18:48:51.702Z,-0.13
2022-12-23T18:51:23.738Z,-0.07
2022-12-23T18:53:55.821Z,-0.03
2022-12-23T18:56:24.165Z,0.00
2022-12-23T18:58:54.369Z,-0.08
2022-12-23T19:01:21.612Z,-0.15
2022-12-23T19:03:49.189Z,-0.19
2022-12-23T19:06:17.552Z,-0.23
2022-12-23T19:08:45.214Z,-0.39
2022-12-23T19:11:15.859Z,-0.36
2022-12-23T19:13:46.889Z,-0.43
2022-12-23T19:16:20.204Z,-0.49
2022-12-23T19:18:49.123Z,-0.51
2022-12-23T19:21:22.000Z,-0.57
2022-12-23T19:23:49.519Z,-0.68
2022-12-23T19:26:19.371Z,-0.65
2022-12-23T19:28:48.794Z,-0.73
2022-12-23T19:31:17.843Z,-0.71
2022-12-23T19:33:46.541Z,-0.69
2022-12-23T19:36:23.577Z,-0.74
2022-12-23T19:38:51.315Z,-0.83
2022-12-23T19:41:20.455Z,-0.87
2022-12-23T19:43:51.887Z,-0.84
2022-12-23T19:46:21.491Z,-0.90
2022-12-23T19:48:52.578Z,-0.89
2022-12-23T19:51:40.287Z,-1.01
2022-12-23T19:54:16.576Z,-0.93
2022-12-23T19:56:44.110Z,-0.95
2022-12-23T19:59:12.024Z,-1.03
2022-12-23T20:01:39.747Z,-1.00
2022-12-23T20:04:07.796Z,-1.11
2022-12-23T20:06:38.428Z,-1.02
2022-12-23T20:09:08.483Z,-0.94
2022-12-23T20:11:41.638Z,-0.93
2022-12-23T20:14:10.327Z,-0.97
2022-12-23T20:16:40.585Z,-0.95
2022-12-23T20:19:11.095Z,-1.01
2022-12-23T20:21:38.307Z,-0.95
2022-12-23T20:24:07.777Z,-0.89
2022-12-23T20:26:36.062Z,-0.92
2022-12-23T20:29:04.059Z,-0.89
2022-12-23T20:31:33.456Z,-1.02
2022-12-23T20:34:04.132Z,-1.10
2022-12-23T20:36:33.682Z,-0.95
2022-12-23T20:39:06.639Z,-0.97
2022-12-23T20:41:33.897Z,-1.12
2022-12-23T20:44:33.869Z,-1.14
2022-12-23T20:46:50.305Z,-1.22
2022-12-23T20:49:19.023Z,-1.25
2022-12-23T20:51:46.135Z,-1.23
2022-12-23T20:54:17.915Z,-1.26
2022-12-23T20:56:45.050Z,-1.30
2022-12-23T20:59:12.724Z,-1.27
2022-12-23T21:01:41.501Z,-1.33
2022-12-23T21:04:12.869Z,-1.31
2022-12-23T21:06:40.499Z,-1.32
2022-12-23T21:09:14.076Z,-1.33
2022-12-23T21:11:44.117Z,-1.35
2022-12-23T21:14:12.294Z,-1.46
2022-12-23T21:16:45.230Z,-1.45
2022-12-23T21:19:18.549Z,-1.48
2022-12-23T21:21:49.317Z,-1.49
2022-12-23T21:24:18.047Z,-1.51
2022-12-23T21:26:50.291Z,-1.52
2022-12-23T21:29:21.586Z,-1.56
2022-12-23T21:31:48.793Z,-1.52
2022-12-23T21:34:16.380Z,-1.63
2022-12-23T21:36:51.176Z,-1.57
2022-12-23T21:39:20.223Z,-1.66
2022-12-23T21:41:51.159Z,-1.63
2022-12-23T21:44:18.895Z,-1.59
2022-12-23T21:46:46.116Z,-1.62
2022-12-23T21:49:13.619Z,-1.66
2022-12-23T21:51:41.720Z,-1.62
2022-12-23T21:54:11.559Z,-1.66
2022-12-23T21:56:39.848Z,-1.67
2022-12-23T21:59:12.058Z,-1.62
2022-12-23T22:01:39.166Z,-1.54
2022-12-23T22:04:07.893Z,-1.55
2022-12-23T22:06:39.043Z,-1.65
2022-12-23T22:09:08.899Z,-1.67
2022-12-23T22:11:40.740Z,-1.80
2022-12-23T22:14:12.027Z,-1.85
2022-12-23T22:16:39.735Z,-1.78
2022-12-23T22:19:08.896Z,-1.81
2022-12-23T22:21:37.874Z,-1.84
2022-12-23T22:24:08.821Z,-1.85
2022-12-23T22:26:36.381Z,-1.81
2022-12-23T22:29:06.191Z,-1.89
2022-12-23T22:31:49.555Z,-1.83
2022-12-23T22:34:20.940Z,-1.81
2022-12-23T22:36:49.711Z,-1.85
2022-12-23T22:39:21.617Z,-1.81
2022-12-23T22:41:50.902Z,-1.86
2022-12-23T22:44:19.098Z,-1.82
2022-12-23T22:46:46.768Z,-1.83
2022-12-23T22:49:16.448Z,-1.78
2022-12-23T22:51:43.822Z,-1.80
2022-12-23T22:54:12.647Z,-1.76
2022-12-23T22:56:39.670Z,-1.81
2022-12-23T22:59:07.316Z,-1.78
2022-12-23T23:01:36.704Z,-1.83
2022-12-23T23:04:08.675Z,-1.88
2022-12-23T23:06:38.527Z,-1.97
2022-12-23T23:09:08.297Z,-1.92
2022-12-23T23:11:35.988Z,-2.02
2022-12-23T23:14:04.431Z,-1.95
2022-12-23T23:16:34.538Z,-2.01
2022-12-23T23:19:04.600Z,-1.98
2022-12-23T23:21:31.531Z,-1.96
2022-12-23T23:23:58.819Z,-2.10
2022-12-23T23:26:27.544Z,-2.10
2022-12-23T23:28:56.075Z,-2.06
2022-12-23T23:34:11.629Z,-2.18
2022-12-23T23:36:38.878Z,-2.19
2022-12-23T23:39:06.737Z,-2.29
2022-12-23T23:41:36.242Z,-2.32
2022-12-23T23:44:04.511Z,-2.32
2022-12-23T23:46:31.992Z,-2.25
2022-12-23T23:48:59.513Z,-2.26
2022-12-23T23:51:26.690Z,-2.30
2022-12-23T23:53:54.082Z,-2.24
2022-12-23T23:56:25.789Z,-2.24
2022-12-23T23:58:54.256Z,-2.23
